sensor_id;sensor_type;location;lat;lon;timestamp;P1;durP1;ratioP1;P2;durP2;ratioP2
59976;SDS011;45837;51.076;3.578;2022-08-01T00:00:25;7.47;;;3.30;;
59976;SDS011;45837;51.076;3.578;2022-08-01T00:02:51;9.50;;;3.45;;
59976;SDS011;45837;51.076;3.578;2022-08-01T00:05:17;8.15;;;3.40;;
59976;SDS011;45837;51.076;3.578;2022-08-01T00:07:42;10.52;;;3.47;;
59976;SDS011;45837;51.076;3.578;2022-08-01T00:10:10;7.93;;;3.70;;
59976;SDS011;45837;51.076;3.578;2022-08-01T00:12:37;12.77;;;4.18;;
59976;SDS011;45837;51.076;3.578;2022-08-01T00:15:06;14.27;;;4.35;;
59976;SDS011;45837;51.076;3.578;2022-08-01T00:17:34;10.50;;;4.13;;
59976;SDS011;45837;51.076;3.578;2022-08-01T00:19:59;11.20;;;4.38;;
59976;SDS011;45837;51.076;3.578;2022-08-01T00:22:28;12.48;;;4.32;;
59976;SDS011;45837;51.076;3.578;2022-08-01T00:24:53;12.43;;;4.28;;
59976;SDS011;45837;51.076;3.578;2022-08-01T00:27:19;15.48;;;4.95;;
59976;SDS011;45837;51.076;3.578;2022-08-01T00:29:45;11.23;;;4.13;;
59976;SDS011;45837;51.076;3.578;2022-08-01T00:32:10;15.63;;;4.38;;
59976;SDS011;45837;51.076;3.578;2022-08-01T00:34:36;11.43;;;5.20;;
59976;SDS011;45837;51.076;3.578;2022-08-01T00:37:02;18.30;;;5.05;;
59976;SDS011;45837;51.076;3.578;2022-08-01T00:39:28;13.57;;;5.57;;
59976;SDS011;45837;51.076;3.578;2022-08-01T00:41:53;16.65;;;6.15;;
59976;SDS011;45837;51.076;3.578;2022-08-01T00:44:19;12.73;;;5.88;;
59976;SDS011;45837;51.076;3.578;2022-08-01T00:46:45;21.98;;;7.05;;
59976;SDS011;45837;51.076;3.578;2022-08-01T00:49:11;16.27;;;5.85;;
59976;SDS011;45837;51.076;3.578;2022-08-01T00:51:36;16.58;;;6.00;;
59976;SDS011;45837;51.076;3.578;2022-08-01T00:54:03;17.40;;;6.78;;
59976;SDS011;45837;51.076;3.578;2022-08-01T00:56:29;18.45;;;6.32;;
59976;SDS011;45837;51.076;3.578;2022-08-01T00:58:56;16.35;;;6.93;;
59976;SDS011;45837;51.076;3.578;2022-08-01T01:01:22;19.48;;;7.68;;
59976;SDS011;45837;51.076;3.578;2022-08-01T01:03:48;14.15;;;5.60;;
59976;SDS011;45837;51.076;3.578;2022-08-01T01:11:49;19.48;;;7.50;;
59976;SDS011;45837;51.076;3.578;2022-08-01T01:17:28;21.60;;;7.28;;
59976;SDS011;45837;51.076;3.578;2022-08-01T01:20:00;19.80;;;6.88;;
59976;SDS011;45837;51.076;3.578;2022-08-01T01:28:35;21.52;;;6.30;;
59976;SDS011;45837;51.076;3.578;2022-08-01T01:31:46;22.73;;;7.90;;
59976;SDS011;45837;51.076;3.578;2022-08-01T01:34:32;24.23;;;6.20;;
59976;SDS011;45837;51.076;3.578;2022-08-01T01:37:01;20.20;;;6.18;;
59976;SDS011;45837;51.076;3.578;2022-08-01T01:39:29;14.07;;;4.93;;
59976;SDS011;45837;51.076;3.578;2022-08-01T01:41:57;21.70;;;5.32;;
59976;SDS011;45837;51.076;3.578;2022-08-01T01:44:25;16.52;;;4.60;;
59976;SDS011;45837;51.076;3.578;2022-08-01T01:46:52;10.63;;;4.07;;
59976;SDS011;45837;51.076;3.578;2022-08-01T01:49:23;15.75;;;4.10;;
59976;SDS011;45837;51.076;3.578;2022-08-01T01:51:51;13.10;;;3.90;;
59976;SDS011;45837;51.076;3.578;2022-08-01T01:54:18;10.77;;;2.97;;
59976;SDS011;45837;51.076;3.578;2022-08-01T01:56:46;10.63;;;3.08;;
59976;SDS011;45837;51.076;3.578;2022-08-01T01:59:16;8.85;;;3.08;;
59976;SDS011;45837;51.076;3.578;2022-08-01T02:01:46;9.48;;;2.70;;
59976;SDS011;45837;51.076;3.578;2022-08-01T02:04:16;15.75;;;2.40;;
59976;SDS011;45837;51.076;3.578;2022-08-01T02:06:43;11.32;;;2.17;;
59976;SDS011;45837;51.076;3.578;2022-08-01T02:09:12;10.63;;;2.70;;
59976;SDS011;45837;51.076;3.578;2022-08-01T02:11:46;8.77;;;2.47;;
59976;SDS011;45837;51.076;3.578;2022-08-01T02:14:14;10.07;;;2.35;;
59976;SDS011;45837;51.076;3.578;2022-08-01T02:16:42;4.88;;;1.80;;
59976;SDS011;45837;51.076;3.578;2022-08-01T02:19:12;8.95;;;2.30;;
59976;SDS011;45837;51.076;3.578;2022-08-01T02:27:12;5.00;;;1.90;;
59976;SDS011;45837;51.076;3.578;2022-08-01T02:29:43;4.50;;;1.77;;
59976;SDS011;45837;51.076;3.578;2022-08-01T02:32:16;13.57;;;2.25;;
59976;SDS011;45837;51.076;3.578;2022-08-01T02:34:49;5.47;;;1.80;;
59976;SDS011;45837;51.076;3.578;2022-08-01T02:37:17;7.25;;;2.05;;
59976;SDS011;45837;51.076;3.578;2022-08-01T02:39:50;6.07;;;1.75;;
59976;SDS011;45837;51.076;3.578;2022-08-01T02:42:18;7.28;;;1.70;;
59976;SDS011;45837;51.076;3.578;2022-08-01T02:44:45;6.57;;;1.63;;
59976;SDS011;45837;51.076;3.578;2022-08-01T02:47:13;5.88;;;1.75;;
59976;SDS011;45837;51.076;3.578;2022-08-01T02:49:42;3.78;;;1.27;;
59976;SDS011;45837;51.076;3.578;2022-08-01T02:52:12;5.45;;;1.50;;
59976;SDS011;45837;51.076;3.578;2022-08-01T02:54:40;6.68;;;1.80;;
59976;SDS011;45837;51.076;3.578;2022-08-01T02:57:10;5.40;;;1.50;;
59976;SDS011;45837;51.076;3.578;2022-08-01T02:59:38;5.90;;;1.30;;
59976;SDS011;45837;51.076;3.578;2022-08-01T03:02:05;6.05;;;1.20;;
59976;SDS011;45837;51.076;3.578;2022-08-01T03:04:34;5.57;;;1.50;;
59976;SDS011;45837;51.076;3.578;2022-08-01T03:07:03;4.30;;;1.48;;
59976;SDS011;45837;51.076;3.578;2022-08-01T03:09:30;2.83;;;1.30;;
59976;SDS011;45837;51.076;3.578;2022-08-01T03:12:00;3.28;;;1.35;;
59976;SDS011;45837;51.076;3.578;2022-08-01T03:14:27;4.88;;;1.58;;
59976;SDS011;45837;51.076;3.578;2022-08-01T03:16:55;5.15;;;1.60;;
59976;SDS011;45837;51.076;3.578;2022-08-01T03:19:23;8.25;;;1.67;;
59976;SDS011;45837;51.076;3.578;2022-08-01T03:21:51;2.28;;;1.10;;
59976;SDS011;45837;51.076;3.578;2022-08-01T03:24:18;4.50;;;1.50;;
59976;SDS011;45837;51.076;3.578;2022-08-01T03:26:46;5.85;;;1.45;;
59976;SDS011;45837;51.076;3.578;2022-08-01T03:29:15;6.15;;;1.08;;
59976;SDS011;45837;51.076;3.578;2022-08-01T03:31:43;5.65;;;1.73;;
59976;SDS011;45837;51.076;3.578;2022-08-01T03:34:11;3.60;;;1.15;;
59976;SDS011;45837;51.076;3.578;2022-08-01T03:37:12;5.63;;;1.52;;
59976;SDS011;45837;51.076;3.578;2022-08-01T03:39:49;3.33;;;0.90;;
59976;SDS011;45837;51.076;3.578;2022-08-01T03:42:30;3.00;;;1.20;;
59976;SDS011;45837;51.076;3.578;2022-08-01T03:44:58;4.47;;;1.00;;
59976;SDS011;45837;51.076;3.578;2022-08-01T03:47:31;5.38;;;1.70;;
59976;SDS011;45837;51.076;3.578;2022-08-01T03:50:02;2.20;;;1.20;;
59976;SDS011;45837;51.076;3.578;2022-08-01T03:52:30;4.15;;;1.10;;
59976;SDS011;45837;51.076;3.578;2022-08-01T03:54:59;4.28;;;1.33;;
59976;SDS011;45837;51.076;3.578;2022-08-01T03:57:32;3.75;;;1.60;;
59976;SDS011;45837;51.076;3.578;2022-08-01T03:59:58;3.95;;;1.60;;
59976;SDS011;45837;51.076;3.578;2022-08-01T04:02:26;3.35;;;1.60;;
59976;SDS011;45837;51.076;3.578;2022-08-01T04:04:52;2.78;;;1.10;;
59976;SDS011;45837;51.076;3.578;2022-08-01T04:07:25;5.50;;;1.27;;
59976;SDS011;45837;51.076;3.578;2022-08-01T04:09:52;4.22;;;1.20;;
59976;SDS011;45837;51.076;3.578;2022-08-01T04:12:18;4.03;;;1.55;;
59976;SDS011;45837;51.076;3.578;2022-08-01T04:14:44;4.55;;;1.30;;
59976;SDS011;45837;51.076;3.578;2022-08-01T04:17:10;3.78;;;1.48;;
59976;SDS011;45837;51.076;3.578;2022-08-01T04:19:36;2.40;;;1.40;;
59976;SDS011;45837;51.076;3.578;2022-08-01T04:22:02;3.08;;;1.30;;
59976;SDS011;45837;51.076;3.578;2022-08-01T04:24:29;4.00;;;1.50;;
59976;SDS011;45837;51.076;3.578;2022-08-01T04:26:58;3.70;;;1.30;;
59976;SDS011;45837;51.076;3.578;2022-08-01T04:29:26;4.07;;;1.40;;
59976;SDS011;45837;51.076;3.578;2022-08-01T04:31:55;3.70;;;1.30;;
59976;SDS011;45837;51.076;3.578;2022-08-01T04:34:25;3.20;;;1.48;;
59976;SDS011;45837;51.076;3.578;2022-08-01T04:36:55;3.92;;;1.55;;
59976;SDS011;45837;51.076;3.578;2022-08-01T04:39:27;2.75;;;1.33;;
59976;SDS011;45837;51.076;3.578;2022-08-01T04:41:56;2.45;;;1.33;;
59976;SDS011;45837;51.076;3.578;2022-08-01T04:44:28;2.00;;;1.33;;
59976;SDS011;45837;51.076;3.578;2022-08-01T04:46:58;2.58;;;1.40;;
59976;SDS011;45837;51.076;3.578;2022-08-01T04:49:31;3.20;;;1.63;;
59976;SDS011;45837;51.076;3.578;2022-08-01T04:51:57;1.75;;;1.13;;
59976;SDS011;45837;51.076;3.578;2022-08-01T04:54:29;3.97;;;1.40;;
59976;SDS011;45837;51.076;3.578;2022-08-01T04:56:55;3.15;;;1.52;;
59976;SDS011;45837;51.076;3.578;2022-08-01T04:59:31;6.53;;;1.75;;
59976;SDS011;45837;51.076;3.578;2022-08-01T05:02:06;3.75;;;1.55;;
59976;SDS011;45837;51.076;3.578;2022-08-01T05:04:33;2.40;;;1.48;;
59976;SDS011;45837;51.076;3.578;2022-08-01T05:06:59;4.05;;;1.02;;
59976;SDS011;45837;51.076;3.578;2022-08-01T05:09:26;4.88;;;1.42;;
59976;SDS011;45837;51.076;3.578;2022-08-01T05:11:51;3.70;;;1.23;;
59976;SDS011;45837;51.076;3.578;2022-08-01T05:14:17;4.38;;;1.27;;
59976;SDS011;45837;51.076;3.578;2022-08-01T05:16:44;9.52;;;1.10;;
59976;SDS011;45837;51.076;3.578;2022-08-01T05:19:11;4.70;;;1.30;;
59976;SDS011;45837;51.076;3.578;2022-08-01T05:21:36;6.40;;;1.60;;
59976;SDS011;45837;51.076;3.578;2022-08-01T05:24:03;4.50;;;1.30;;
59976;SDS011;45837;51.076;3.578;2022-08-01T05:26:30;2.20;;;1.17;;
59976;SDS011;45837;51.076;3.578;2022-08-01T05:28:56;7.88;;;1.33;;
59976;SDS011;45837;51.076;3.578;2022-08-01T05:31:21;4.93;;;0.90;;
59976;SDS011;45837;51.076;3.578;2022-08-01T05:33:47;3.97;;;1.20;;
59976;SDS011;45837;51.076;3.578;2022-08-01T05:36:13;5.75;;;1.33;;
59976;SDS011;45837;51.076;3.578;2022-08-01T05:38:38;6.18;;;1.00;;
59976;SDS011;45837;51.076;3.578;2022-08-01T05:41:04;2.25;;;1.17;;
59976;SDS011;45837;51.076;3.578;2022-08-01T05:43:30;7.13;;;1.27;;
59976;SDS011;45837;51.076;3.578;2022-08-01T05:45:56;4.32;;;1.00;;
59976;SDS011;45837;51.076;3.578;2022-08-01T05:48:23;5.85;;;1.23;;
59976;SDS011;45837;51.076;3.578;2022-08-01T05:50:49;3.58;;;1.35;;
59976;SDS011;45837;51.076;3.578;2022-08-01T05:53:15;6.88;;;1.40;;
59976;SDS011;45837;51.076;3.578;2022-08-01T05:55:41;6.07;;;1.50;;
59976;SDS011;45837;51.076;3.578;2022-08-01T05:58:07;5.60;;;1.25;;
59976;SDS011;45837;51.076;3.578;2022-08-01T06:00:33;7.80;;;1.15;;
59976;SDS011;45837;51.076;3.578;2022-08-01T06:02:59;5.78;;;1.55;;
59976;SDS011;45837;51.076;3.578;2022-08-01T06:05:24;9.13;;;1.77;;
59976;SDS011;45837;51.076;3.578;2022-08-01T06:07:50;7.45;;;1.40;;
59976;SDS011;45837;51.076;3.578;2022-08-01T06:10:16;8.18;;;1.40;;
59976;SDS011;45837;51.076;3.578;2022-08-01T06:12:41;2.53;;;1.30;;
59976;SDS011;45837;51.076;3.578;2022-08-01T06:15:07;6.78;;;1.40;;
59976;SDS011;45837;51.076;3.578;2022-08-01T06:17:33;4.35;;;1.60;;
59976;SDS011;45837;51.076;3.578;2022-08-01T06:19:59;5.00;;;1.30;;
59976;SDS011;45837;51.076;3.578;2022-08-01T06:22:25;5.32;;;1.58;;
59976;SDS011;45837;51.076;3.578;2022-08-01T06:24:51;4.07;;;1.40;;
59976;SDS011;45837;51.076;3.578;2022-08-01T06:27:17;7.85;;;1.70;;
59976;SDS011;45837;51.076;3.578;2022-08-01T06:29:43;5.72;;;1.50;;
59976;SDS011;45837;51.076;3.578;2022-08-01T06:32:09;9.20;;;1.67;;
59976;SDS011;45837;51.076;3.578;2022-08-01T06:34:35;6.13;;;1.85;;
59976;SDS011;45837;51.076;3.578;2022-08-01T06:37:01;6.32;;;1.65;;
59976;SDS011;45837;51.076;3.578;2022-08-01T06:39:26;8.18;;;1.75;;
59976;SDS011;45837;51.076;3.578;2022-08-01T06:41:52;4.00;;;1.42;;
59976;SDS011;45837;51.076;3.578;2022-08-01T06:44:18;5.00;;;1.65;;
59976;SDS011;45837;51.076;3.578;2022-08-01T06:46:43;5.85;;;1.55;;
59976;SDS011;45837;51.076;3.578;2022-08-01T06:49:09;4.30;;;1.52;;
59976;SDS011;45837;51.076;3.578;2022-08-01T06:51:35;4.30;;;1.30;;
59976;SDS011;45837;51.076;3.578;2022-08-01T06:54:01;4.55;;;1.65;;
59976;SDS011;45837;51.076;3.578;2022-08-01T06:56:26;7.05;;;1.55;;
59976;SDS011;45837;51.076;3.578;2022-08-01T06:58:52;4.15;;;1.40;;
59976;SDS011;45837;51.076;3.578;2022-08-01T07:01:21;3.03;;;1.33;;
59976;SDS011;45837;51.076;3.578;2022-08-01T07:03:47;4.10;;;1.30;;
59976;SDS011;45837;51.076;3.578;2022-08-01T07:06:12;4.07;;;1.45;;
59976;SDS011;45837;51.076;3.578;2022-08-01T07:08:40;3.08;;;1.60;;
59976;SDS011;45837;51.076;3.578;2022-08-01T07:11:05;2.97;;;1.45;;
59976;SDS011;45837;51.076;3.578;2022-08-01T07:13:31;5.35;;;1.50;;
59976;SDS011;45837;51.076;3.578;2022-08-01T07:15:57;4.88;;;1.50;;
59976;SDS011;45837;51.076;3.578;2022-08-01T07:18:23;6.68;;;1.30;;
59976;SDS011;45837;51.076;3.578;2022-08-01T07:20:49;7.18;;;1.50;;
59976;SDS011;45837;51.076;3.578;2022-08-01T07:23:15;4.15;;;1.10;;
59976;SDS011;45837;51.076;3.578;2022-08-01T07:25:42;5.97;;;1.60;;
59976;SDS011;45837;51.076;3.578;2022-08-01T07:28:08;6.35;;;1.23;;
59976;SDS011;45837;51.076;3.578;2022-08-01T07:30:34;4.18;;;1.38;;
59976;SDS011;45837;51.076;3.578;2022-08-01T07:33:00;3.70;;;1.30;;
59976;SDS011;45837;51.076;3.578;2022-08-01T07:35:26;8.55;;;1.33;;
59976;SDS011;45837;51.076;3.578;2022-08-01T07:37:52;6.05;;;1.10;;
59976;SDS011;45837;51.076;3.578;2022-08-01T07:40:18;8.18;;;1.00;;
59976;SDS011;45837;51.076;3.578;2022-08-01T07:42:44;3.22;;;0.75;;
59976;SDS011;45837;51.076;3.578;2022-08-01T07:45:11;10.18;;;1.40;;
59976;SDS011;45837;51.076;3.578;2022-08-01T07:47:38;6.45;;;1.55;;
59976;SDS011;45837;51.076;3.578;2022-08-01T07:50:04;3.33;;;0.88;;
59976;SDS011;45837;51.076;3.578;2022-08-01T07:52:30;3.63;;;1.05;;
59976;SDS011;45837;51.076;3.578;2022-08-01T07:54:56;3.88;;;1.05;;
59976;SDS011;45837;51.076;3.578;2022-08-01T07:57:23;3.17;;;0.90;;
59976;SDS011;45837;51.076;3.578;2022-08-01T07:59:50;3.13;;;0.98;;
59976;SDS011;45837;51.076;3.578;2022-08-01T08:02:16;4.65;;;1.00;;
59976;SDS011;45837;51.076;3.578;2022-08-01T08:04:42;5.35;;;1.10;;
59976;SDS011;45837;51.076;3.578;2022-08-01T08:07:07;3.58;;;1.05;;
59976;SDS011;45837;51.076;3.578;2022-08-01T08:09:34;5.15;;;1.10;;
59976;SDS011;45837;51.076;3.578;2022-08-01T08:11:59;11.13;;;1.30;;
59976;SDS011;45837;51.076;3.578;2022-08-01T08:14:25;10.85;;;1.30;;
59976;SDS011;45837;51.076;3.578;2022-08-01T08:16:51;3.80;;;1.20;;
59976;SDS011;45837;51.076;3.578;2022-08-01T08:19:17;5.30;;;1.20;;
59976;SDS011;45837;51.076;3.578;2022-08-01T08:21:43;8.27;;;1.20;;
59976;SDS011;45837;51.076;3.578;2022-08-01T08:24:09;3.33;;;0.82;;
59976;SDS011;45837;51.076;3.578;2022-08-01T08:26:45;6.68;;;1.30;;
59976;SDS011;45837;51.076;3.578;2022-08-01T08:29:12;5.60;;;1.17;;
59976;SDS011;45837;51.076;3.578;2022-08-01T08:31:37;2.33;;;0.90;;
59976;SDS011;45837;51.076;3.578;2022-08-01T08:34:03;4.32;;;1.00;;
59976;SDS011;45837;51.076;3.578;2022-08-01T08:36:29;2.03;;;0.68;;
59976;SDS011;45837;51.076;3.578;2022-08-01T08:38:55;2.40;;;0.90;;
59976;SDS011;45837;51.076;3.578;2022-08-01T08:41:21;3.97;;;1.00;;
59976;SDS011;45837;51.076;3.578;2022-08-01T08:43:48;5.18;;;0.98;;
59976;SDS011;45837;51.076;3.578;2022-08-01T08:46:14;1.70;;;0.60;;
59976;SDS011;45837;51.076;3.578;2022-08-01T08:48:41;3.90;;;0.98;;
59976;SDS011;45837;51.076;3.578;2022-08-01T08:51:08;5.28;;;1.00;;
59976;SDS011;45837;51.076;3.578;2022-08-01T08:53:37;3.22;;;0.75;;
59976;SDS011;45837;51.076;3.578;2022-08-01T08:56:08;3.83;;;0.95;;
59976;SDS011;45837;51.076;3.578;2022-08-01T08:58:36;7.15;;;0.90;;
59976;SDS011;45837;51.076;3.578;2022-08-01T09:01:06;3.40;;;1.13;;
59976;SDS011;45837;51.076;3.578;2022-08-01T09:03:34;3.72;;;1.23;;
59976;SDS011;45837;51.076;3.578;2022-08-01T09:05:59;3.75;;;1.63;;
59976;SDS011;45837;51.076;3.578;2022-08-01T09:08:25;4.25;;;1.40;;
59976;SDS011;45837;51.076;3.578;2022-08-01T09:10:51;3.60;;;1.02;;
59976;SDS011;45837;51.076;3.578;2022-08-01T09:13:17;4.22;;;1.40;;
59976;SDS011;45837;51.076;3.578;2022-08-01T09:15:47;2.35;;;1.40;;
59976;SDS011;45837;51.076;3.578;2022-08-01T09:18:35;3.75;;;1.80;;
59976;SDS011;45837;51.076;3.578;2022-08-01T09:26:13;6.13;;;3.33;;
59976;SDS011;45837;51.076;3.578;2022-08-01T09:28:41;5.28;;;3.20;;
59976;SDS011;45837;51.076;3.578;2022-08-01T09:31:14;5.00;;;2.05;;
59976;SDS011;45837;51.076;3.578;2022-08-01T09:36:13;8.40;;;2.15;;
59976;SDS011;45837;51.076;3.578;2022-08-01T09:38:39;5.72;;;1.70;;
59976;SDS011;45837;51.076;3.578;2022-08-01T09:41:05;2.63;;;1.50;;
59976;SDS011;45837;51.076;3.578;2022-08-01T09:43:32;3.63;;;1.67;;
59976;SDS011;45837;51.076;3.578;2022-08-01T09:45:59;4.85;;;1.45;;
59976;SDS011;45837;51.076;3.578;2022-08-01T09:48:29;4.55;;;1.20;;
59976;SDS011;45837;51.076;3.578;2022-08-01T09:50:58;3.45;;;1.40;;
59976;SDS011;45837;51.076;3.578;2022-08-01T09:53:24;3.67;;;1.40;;
59976;SDS011;45837;51.076;3.578;2022-08-01T09:55:50;6.60;;;1.10;;
59976;SDS011;45837;51.076;3.578;2022-08-01T09:58:17;4.55;;;1.40;;
59976;SDS011;45837;51.076;3.578;2022-08-01T10:00:44;5.80;;;1.35;;
59976;SDS011;45837;51.076;3.578;2022-08-01T10:03:25;5.03;;;1.27;;
59976;SDS011;45837;51.076;3.578;2022-08-01T10:05:51;3.38;;;1.10;;
59976;SDS011;45837;51.076;3.578;2022-08-01T10:08:18;4.47;;;1.50;;
59976;SDS011;45837;51.076;3.578;2022-08-01T10:13:34;5.07;;;1.38;;
59976;SDS011;45837;51.076;3.578;2022-08-01T10:16:00;3.10;;;1.27;;
59976;SDS011;45837;51.076;3.578;2022-08-01T10:18:27;3.53;;;1.30;;
59976;SDS011;45837;51.076;3.578;2022-08-01T10:20:56;3.60;;;1.23;;
59976;SDS011;45837;51.076;3.578;2022-08-01T10:23:24;2.65;;;1.00;;
59976;SDS011;45837;51.076;3.578;2022-08-01T10:25:53;2.83;;;1.00;;
59976;SDS011;45837;51.076;3.578;2022-08-01T10:28:20;7.20;;;1.20;;
59976;SDS011;45837;51.076;3.578;2022-08-01T10:30:48;4.93;;;1.08;;
59976;SDS011;45837;51.076;3.578;2022-08-01T10:33:14;4.40;;;1.10;;
59976;SDS011;45837;51.076;3.578;2022-08-01T10:35:40;5.65;;;1.45;;
59976;SDS011;45837;51.076;3.578;2022-08-01T10:38:06;2.83;;;1.00;;
59976;SDS011;45837;51.076;3.578;2022-08-01T10:40:32;4.13;;;1.60;;
59976;SDS011;45837;51.076;3.578;2022-08-01T10:43:00;1.90;;;1.20;;
59976;SDS011;45837;51.076;3.578;2022-08-01T10:45:27;4.07;;;1.10;;
59976;SDS011;45837;51.076;3.578;2022-08-01T10:48:02;3.20;;;1.10;;
59976;SDS011;45837;51.076;3.578;2022-08-01T10:50:51;8.68;;;1.55;;
59976;SDS011;45837;51.076;3.578;2022-08-01T10:53:19;6.68;;;1.10;;
59976;SDS011;45837;51.076;3.578;2022-08-01T10:58:13;5.60;;;1.35;;
59976;SDS011;45837;51.076;3.578;2022-08-01T11:00:39;6.30;;;1.55;;
59976;SDS011;45837;51.076;3.578;2022-08-01T11:03:05;8.13;;;1.58;;
59976;SDS011;45837;51.076;3.578;2022-08-01T11:05:31;7.05;;;1.85;;
59976;SDS011;45837;51.076;3.578;2022-08-01T11:08:07;17.83;;;1.98;;
59976;SDS011;45837;51.076;3.578;2022-08-01T11:13:03;20.63;;;3.20;;
59976;SDS011;45837;51.076;3.578;2022-08-01T11:15:32;29.88;;;3.58;;
59976;SDS011;45837;51.076;3.578;2022-08-01T11:18:03;38.70;;;3.22;;
59976;SDS011;45837;51.076;3.578;2022-08-01T11:20:56;29.40;;;2.75;;
59976;SDS011;45837;51.076;3.578;2022-08-01T11:23:24;23.63;;;2.70;;
59976;SDS011;45837;51.076;3.578;2022-08-01T11:28:22;19.70;;;2.50;;
59976;SDS011;45837;51.076;3.578;2022-08-01T11:30:53;17.65;;;2.80;;
59976;SDS011;45837;51.076;3.578;2022-08-01T11:36:27;8.52;;;1.98;;
59976;SDS011;45837;51.076;3.578;2022-08-01T11:41:25;13.50;;;1.85;;
59976;SDS011;45837;51.076;3.578;2022-08-01T11:46:50;8.98;;;1.60;;
59976;SDS011;45837;51.076;3.578;2022-08-01T11:49:26;8.75;;;1.70;;
59976;SDS011;45837;51.076;3.578;2022-08-01T11:54:30;10.65;;;2.40;;
59976;SDS011;45837;51.076;3.578;2022-08-01T11:56:58;7.35;;;2.00;;
59976;SDS011;45837;51.076;3.578;2022-08-01T11:59:26;9.50;;;2.00;;
59976;SDS011;45837;51.076;3.578;2022-08-01T12:01:52;9.20;;;1.70;;
59976;SDS011;45837;51.076;3.578;2022-08-01T12:04:18;15.95;;;2.00;;
59976;SDS011;45837;51.076;3.578;2022-08-01T12:06:45;20.85;;;2.75;;
59976;SDS011;45837;51.076;3.578;2022-08-01T12:09:15;10.82;;;1.80;;
59976;SDS011;45837;51.076;3.578;2022-08-01T12:11:42;18.75;;;2.15;;
59976;SDS011;45837;51.076;3.578;2022-08-01T12:14:07;8.25;;;1.63;;
59976;SDS011;45837;51.076;3.578;2022-08-01T12:16:33;11.70;;;1.92;;
59976;SDS011;45837;51.076;3.578;2022-08-01T12:18:59;6.25;;;2.10;;
59976;SDS011;45837;51.076;3.578;2022-08-01T12:21:25;9.02;;;1.60;;
59976;SDS011;45837;51.076;3.578;2022-08-01T12:24:00;6.63;;;1.48;;
59976;SDS011;45837;51.076;3.578;2022-08-01T12:26:40;4.22;;;1.38;;
59976;SDS011;45837;51.076;3.578;2022-08-01T12:29:06;3.28;;;1.52;;
59976;SDS011;45837;51.076;3.578;2022-08-01T12:31:33;3.10;;;1.10;;
59976;SDS011;45837;51.076;3.578;2022-08-01T12:34:24;5.40;;;1.55;;
59976;SDS011;45837;51.076;3.578;2022-08-01T12:36:54;3.35;;;1.13;;
59976;SDS011;45837;51.076;3.578;2022-08-01T12:39:21;8.43;;;1.30;;
59976;SDS011;45837;51.076;3.578;2022-08-01T12:41:46;13.80;;;1.70;;
59976;SDS011;45837;51.076;3.578;2022-08-01T12:44:13;7.60;;;1.80;;
59976;SDS011;45837;51.076;3.578;2022-08-01T12:46:40;11.10;;;1.35;;
59976;SDS011;45837;51.076;3.578;2022-08-01T12:49:06;16.00;;;1.88;;
59976;SDS011;45837;51.076;3.578;2022-08-01T12:51:32;8.77;;;1.98;;
59976;SDS011;45837;51.076;3.578;2022-08-01T12:53:59;8.73;;;1.83;;
59976;SDS011;45837;51.076;3.578;2022-08-01T12:56:34;17.92;;;2.08;;
59976;SDS011;45837;51.076;3.578;2022-08-01T12:58:59;15.73;;;1.70;;
59976;SDS011;45837;51.076;3.578;2022-08-01T13:01:26;23.08;;;2.28;;
59976;SDS011;45837;51.076;3.578;2022-08-01T13:03:59;12.57;;;2.00;;
59976;SDS011;45837;51.076;3.578;2022-08-01T13:06:28;12.52;;;2.00;;
59976;SDS011;45837;51.076;3.578;2022-08-01T13:08:54;13.95;;;2.15;;
59976;SDS011;45837;51.076;3.578;2022-08-01T13:11:20;24.35;;;2.47;;
59976;SDS011;45837;51.076;3.578;2022-08-01T13:13:49;17.75;;;2.08;;
59976;SDS011;45837;51.076;3.578;2022-08-01T13:16:17;17.00;;;1.80;;
59976;SDS011;45837;51.076;3.578;2022-08-01T13:18:48;20.45;;;1.40;;
59976;SDS011;45837;51.076;3.578;2022-08-01T13:21:16;15.80;;;1.75;;
59976;SDS011;45837;51.076;3.578;2022-08-01T13:26:37;7.00;;;1.80;;
59976;SDS011;45837;51.076;3.578;2022-08-01T13:29:10;7.78;;;1.92;;
59976;SDS011;45837;51.076;3.578;2022-08-01T13:31:38;11.82;;;1.77;;
59976;SDS011;45837;51.076;3.578;2022-08-01T13:34:05;6.07;;;1.55;;
59976;SDS011;45837;51.076;3.578;2022-08-01T13:36:31;6.85;;;1.50;;
59976;SDS011;45837;51.076;3.578;2022-08-01T13:38:57;10.43;;;1.70;;
59976;SDS011;45837;51.076;3.578;2022-08-01T13:41:42;4.60;;;1.25;;
59976;SDS011;45837;51.076;3.578;2022-08-01T13:44:08;7.07;;;1.92;;
59976;SDS011;45837;51.076;3.578;2022-08-01T13:46:36;6.47;;;1.45;;
59976;SDS011;45837;51.076;3.578;2022-08-01T13:49:05;5.13;;;1.20;;
59976;SDS011;45837;51.076;3.578;2022-08-01T13:51:35;7.57;;;1.40;;
59976;SDS011;45837;51.076;3.578;2022-08-01T13:54:03;6.40;;;1.48;;
59976;SDS011;45837;51.076;3.578;2022-08-01T13:56:30;11.38;;;1.42;;
59976;SDS011;45837;51.076;3.578;2022-08-01T13:58:57;6.10;;;1.75;;
59976;SDS011;45837;51.076;3.578;2022-08-01T14:01:23;4.22;;;1.30;;
59976;SDS011;45837;51.076;3.578;2022-08-01T14:03:50;3.40;;;1.27;;
59976;SDS011;45837;51.076;3.578;2022-08-01T14:06:16;11.23;;;1.20;;
59976;SDS011;45837;51.076;3.578;2022-08-01T14:08:43;3.83;;;1.48;;
59976;SDS011;45837;51.076;3.578;2022-08-01T14:11:10;4.15;;;1.27;;
59976;SDS011;45837;51.076;3.578;2022-08-01T14:13:36;3.05;;;1.10;;
59976;SDS011;45837;51.076;3.578;2022-08-01T14:16:06;4.30;;;1.33;;
59976;SDS011;45837;51.076;3.578;2022-08-01T14:18:32;4.13;;;1.38;;
59976;SDS011;45837;51.076;3.578;2022-08-01T14:20:58;4.72;;;1.70;;
59976;SDS011;45837;51.076;3.578;2022-08-01T14:23:24;6.07;;;1.42;;
59976;SDS011;45837;51.076;3.578;2022-08-01T14:25:50;4.55;;;1.95;;
59976;SDS011;45837;51.076;3.578;2022-08-01T14:28:16;13.60;;;2.00;;
59976;SDS011;45837;51.076;3.578;2022-08-01T14:30:42;5.85;;;1.80;;
59976;SDS011;45837;51.076;3.578;2022-08-01T14:33:08;11.02;;;1.70;;
59976;SDS011;45837;51.076;3.578;2022-08-01T14:35:36;6.90;;;1.98;;
59976;SDS011;45837;51.076;3.578;2022-08-01T14:38:02;6.68;;;2.00;;
59976;SDS011;45837;51.076;3.578;2022-08-01T14:40:28;6.60;;;1.98;;
59976;SDS011;45837;51.076;3.578;2022-08-01T14:42:54;11.27;;;1.95;;
59976;SDS011;45837;51.076;3.578;2022-08-01T14:45:20;17.05;;;2.15;;
59976;SDS011;45837;51.076;3.578;2022-08-01T14:47:46;13.40;;;2.10;;
59976;SDS011;45837;51.076;3.578;2022-08-01T14:50:12;35.42;;;3.17;;
59976;SDS011;45837;51.076;3.578;2022-08-01T14:52:40;20.33;;;2.58;;
59976;SDS011;45837;51.076;3.578;2022-08-01T14:55:08;29.27;;;3.17;;
59976;SDS011;45837;51.076;3.578;2022-08-01T14:57:36;33.70;;;3.17;;
59976;SDS011;45837;51.076;3.578;2022-08-01T15:00:03;27.60;;;3.50;;
59976;SDS011;45837;51.076;3.578;2022-08-01T15:02:31;24.55;;;3.45;;
59976;SDS011;45837;51.076;3.578;2022-08-01T15:04:57;17.50;;;3.50;;
59976;SDS011;45837;51.076;3.578;2022-08-01T15:07:23;21.27;;;3.03;;
59976;SDS011;45837;51.076;3.578;2022-08-01T15:09:49;16.55;;;2.60;;
59976;SDS011;45837;51.076;3.578;2022-08-01T15:12:15;15.43;;;2.97;;
59976;SDS011;45837;51.076;3.578;2022-08-01T15:14:40;13.27;;;2.45;;
59976;SDS011;45837;51.076;3.578;2022-08-01T15:17:22;13.15;;;3.13;;
59976;SDS011;45837;51.076;3.578;2022-08-01T15:19:51;13.35;;;2.15;;
59976;SDS011;45837;51.076;3.578;2022-08-01T15:22:18;11.07;;;2.47;;
59976;SDS011;45837;51.076;3.578;2022-08-01T15:24:46;18.75;;;2.60;;
59976;SDS011;45837;51.076;3.578;2022-08-01T15:27:13;7.57;;;2.25;;
59976;SDS011;45837;51.076;3.578;2022-08-01T15:29:39;7.40;;;1.80;;
59976;SDS011;45837;51.076;3.578;2022-08-01T15:32:05;14.65;;;2.20;;
59976;SDS011;45837;51.076;3.578;2022-08-01T15:34:32;6.18;;;1.90;;
59976;SDS011;45837;51.076;3.578;2022-08-01T15:37:01;13.75;;;1.80;;
59976;SDS011;45837;51.076;3.578;2022-08-01T15:39:28;13.82;;;2.05;;